Wanette, Oklahoma
Current Conditions -  °F | °C
As of 7:35 AM on Friday 19 Dec 2014 (Local Time) from KPVJ Reporting Station
Haze Haze  
Wind Chill: 40°   Ceiling: 500
Heat Index: 40°   Visibility: 5mi
Dew Point: 39°   Wind: 3mph
Humidity: 96%   Direction: 60°ENE
Pressure: 30.21"   Gusts: NA
Location:  34.96°N, 97.03°W
Report Text: KPVJ 191335Z AUTO 06003KT 5SM BR OVC005 05/04 A3021 RMK AO2 T00460040
Loading
Personal Weather Stations






























Interactive Weather Map New forecast layout! Learn more

10-Day Weather Forecast

Advertisements
Track Severe Weather on mobile